Time;durP1;ratioP1;P1;durP2;ratioP2;P2;SDS_P1;SDS_P2;PMS_P1;PMS_P2;Temp;Humidity;BMP_temperature;BMP_pressure;BME280_temperature;BME280_humidity;BME280_pressure;Samples;Min_cycle;Max_cycle;Signal;HPM_P1;HPM_P2
2023/03/29 05:01:51;;;;;;;;;;;;;;;10.77;53.46;97360.78;4245476;27;10419;-67
2023/03/29 05:03:54;;;;;;;;;;;;;;;11.04;53.15;97352.22;4244176;27;5691;-67
2023/03/29 05:06:05;;;;;;;;;;;;;;;11.26;52.98;97354.94;4247519;27;5643;-66
2023/03/29 05:08:09;;;;;;;;;;;;;;;11.41;52.58;97358.41;4248762;27;5650;-67
2023/03/29 05:10:12;;;;;;;;;;;;;;;11.52;52.63;97355.28;4246640;27;5645;-67
2023/03/29 05:12:15;;;;;;;;;;;;;;;11.62;52.38;97347.88;4244286;27;5638;-68
2023/03/29 05:14:18;;;;;;;;;;;;;;;11.73;52.13;97340.44;4245165;27;5657;-68
2023/03/29 05:16:20;;;;;;;;;;;;;;;11.84;52.24;97348.75;4248117;27;5654;-68
2023/03/29 05:18:25;;;;;;;;;;;;;;;11.95;52.25;97350.91;4247513;27;5882;-67
2023/03/29 05:20:28;;;;;;;;;;;;;;;12.03;51.93;97347.34;4248236;27;6331;-67
2023/03/29 05:22:31;;;;;;;;;;;;;;;12.10;52.03;97334.94;4244261;27;5645;-67
2023/03/29 05:24:34;;;;;;;;;;;;;;;12.16;51.57;97342.16;4247579;27;5646;-68
2023/03/29 05:26:37;;;;;;;;;;;;;;;12.20;51.68;97334.63;4241934;27;5646;-67
2023/03/29 05:28:40;;;;;;;;;;;;;;;12.24;51.55;97338.56;4242680;27;5664;-68
2023/03/29 05:30:43;;;;;;;;;;;;;;;12.28;51.50;97339.00;4243312;27;5829;-68
2023/03/29 05:32:46;;;;;;;;;;;;;;;12.31;51.57;97343.91;4243669;27;5752;-68
2023/03/29 05:34:51;;;;;;;;;;;;;;;12.33;51.47;97349.84;4246115;27;5642;-69
2023/03/29 05:36:55;;;;;;;;;;;;;;;12.38;51.48;97355.41;4247698;27;5657;-69
2023/03/29 05:39:00;;;;;;;;;;;;;;;12.40;50.99;97356.84;4247768;27;5658;-68
2023/03/29 05:41:05;;;;;;;;;;;;;;;12.43;51.37;97353.00;4247966;27;5962;-68
2023/03/29 05:43:08;;;;;;;;;;;;;;;12.46;51.29;97345.50;4247763;27;5730;-68
2023/03/29 05:45:11;;;;;;;;;;;;;;;12.47;50.94;97333.88;4248122;27;5649;-68
2023/03/29 05:47:14;;;;;;;;;;;;;;;12.51;51.23;97336.94;4247650;27;5765;-68
2023/03/29 05:49:17;;;;;;;;;;;;;;;12.52;51.05;97343.88;4247775;27;5646;-68
2023/03/29 05:51:23;;;;;;;;;;;;;;;12.54;50.72;97355.13;4247277;27;5642;-68
2023/03/29 05:53:27;;;;;;;;;;;;;;;12.56;50.90;97358.41;4247926;27;5657;-68
2023/03/29 05:55:29;;;;;;;;;;;;;;;12.59;50.68;97363.34;4247825;27;5662;-68
2023/03/29 05:57:35;;;;;;;;;;;;;;;12.61;50.60;97363.97;4247809;27;5697;-68
2023/03/29 05:59:38;;;;;;;;;;;;;;;12.63;50.46;97369.88;4247835;27;5658;-69
2023/03/29 06:01:41;;;;;;;;;;;;;;;12.65;50.50;97372.34;4242451;27;5638;-68
2023/03/29 06:03:44;;;;;;;;;;;;;;;12.65;50.78;97367.88;4236423;28;6464;-68
2023/03/29 06:05:56;;;;;;;;;;;;;;;12.69;50.65;97368.31;4228245;28;5774;-67
2023/03/29 06:08:00;;;;;;;;;;;;;;;12.70;50.49;97369.97;4235473;27;5661;-67
2023/03/29 06:10:03;;;;;;;;;;;;;;;12.69;50.57;97374.44;4236483;27;5670;-68
2023/03/29 06:12:07;;;;;;;;;;;;;;;12.68;50.44;97372.78;4236579;28;5650;-68
2023/03/29 06:14:12;;;;;;;;;;;;;;;12.70;50.15;97376.09;4236512;28;5661;-68
2023/03/29 06:16:15;;;;;;;;;;;;;;;12.71;50.51;97367.09;4229100;28;6450;-68
2023/03/29 06:18:18;;;;;;;;;;;;;;;12.71;50.53;97367.09;4234924;28;5985;-68
2023/03/29 06:20:21;;;;;;;;;;;;;;;12.73;50.06;97367.72;4236089;28;6392;-68
2023/03/29 06:22:24;;;;;;;;;;;;;;;12.74;50.35;97382.63;4234548;28;5733;-68
2023/03/29 06:24:28;;;;;;;;;;;;;;;12.75;50.40;97381.63;4236248;27;5638;-68
2023/03/29 06:26:31;;;;;;;;;;;;;;;12.78;50.14;97389.19;4236074;28;5650;-69
2023/03/29 06:28:34;;;;;;;;;;;;;;;12.81;50.00;97396.78;4236162;28;5666;-68
2023/03/29 06:30:38;;;;;;;;;;;;;;;12.83;50.03;97396.59;4236024;27;5810;-68
2023/03/29 06:32:41;;;;;;;;;;;;;;;12.85;50.28;97389.25;4236113;28;5761;-68
2023/03/29 06:34:44;;;;;;;;;;;;;;;12.86;50.26;97384.75;4235758;28;5639;-68
2023/03/29 06:36:49;;;;;;;;;;;;;;;12.87;50.27;97389.06;4235681;27;5757;-68
2023/03/29 06:38:52;;;;;;;;;;;;;;;12.89;50.00;97395.81;4235715;28;5666;-68
2023/03/29 06:41:02;;;;;;;;;;;;;;;12.89;50.24;97395.81;4236168;27;5637;-67
2023/03/29 06:43:07;;;;;;;;;;;;;;;12.93;50.08;97399.72;4235682;28;6339;-68
2023/03/29 06:45:11;;;;;;;;;;;;;;;12.96;50.14;97396.69;4230562;28;6474;-68
2023/03/29 06:47:14;;;;;;;;;;;;;;;13.00;50.09;97399.75;4230357;28;5773;-68
2023/03/29 06:49:17;;;;;;;;;;;;;;;13.01;50.26;97398.75;4235917;28;5650;-68
2023/03/29 06:51:21;;;;;;;;;;;;;;;13.03;50.06;97391.44;4235043;28;5654;-69
2023/03/29 06:53:26;;;;;;;;;;;;;;;13.05;50.06;97392.06;4235640;28;5056;-68
2023/03/29 06:55:30;;;;;;;;;;;;;;;13.06;50.08;97399.00;4233337;28;5653;-68
2023/03/29 06:57:34;;;;;;;;;;;;;;;13.04;50.16;97403.69;4235697;28;5654;-68
2023/03/29 06:59:37;;;;;;;;;;;;;;;13.04;49.97;97398.38;4234652;27;5655;-68
2023/03/29 07:01:40;;;;;;;;;;;;;;;13.03;49.90;97391.44;4235561;28;6000;-69
2023/03/29 07:03:44;;;;;;;;;;;;;;;13.06;50.17;97383.06;4235679;28;7182;-69
2023/03/29 07:05:50;;;;;;;;;;;;;;;13.08;49.82;97395.13;4227491;28;5646;-68
2023/03/29 07:07:55;;;;;;;;;;;;;;;13.11;50.21;97396.56;4234231;28;5646;-69
2023/03/29 07:10:00;;;;;;;;;;;;;;;13.15;50.07;97400.50;4229633;28;6550;-69
2023/03/29 07:12:03;;;;;;;;;;;;;;;13.18;50.12;97400.09;4235137;28;5782;-69
2023/03/29 07:14:08;;;;;;;;;;;;;;;13.20;49.74;97406.06;4234449;28;5826;-68
2023/03/29 07:16:12;;;;;;;;;;;;;;;13.18;49.94;97409.91;4235728;27;5731;-69
2023/03/29 07:18:17;;;;;;;;;;;;;;;13.19;50.20;97411.56;4222514;28;5667;-69
2023/03/29 07:20:21;;;;;;;;;;;;;;;13.19;50.08;97414.22;4222583;28;5786;-69
2023/03/29 07:22:25;;;;;;;;;;;;;;;13.17;49.91;97410.91;4218454;28;5666;-69
2023/03/29 07:24:28;;;;;;;;;;;;;;;13.16;50.01;97426.03;4231649;28;5647;-69
2023/03/29 07:26:31;;;;;;;;;;;;;;;13.16;49.97;97441.94;4230842;28;5642;-70
2023/03/29 07:28:36;;;;;;;;;;;;;;;13.15;50.21;97427.03;4235654;28;5634;-75
2023/03/29 07:30:40;;;;;;;;;;;;;;;13.16;50.04;97428.69;4235585;28;5666;-80
2023/03/29 07:32:45;;;;;;;;;;;;;;;13.16;50.25;97434.00;4235798;28;5675;-79
2023/03/29 07:34:48;;;;;;;;;;;;;;;13.19;50.40;97433.63;4235305;27;5658;-75
2023/03/29 07:36:51;;;;;;;;;;;;;;;13.21;50.23;97431.59;4234278;27;5662;-71
2023/03/29 07:38:55;;;;;;;;;;;;;;;13.19;50.27;97428.31;4233428;28;6371;-69
2023/03/29 07:40:59;;;;;;;;;;;;;;;13.18;50.51;97429.31;4234704;28;5785;-69
2023/03/29 07:43:07;;;;;;;;;;;;;;;13.18;50.43;97431.94;4234953;28;5650;-69
2023/03/29 07:45:12;;;;;;;;;;;;;;;13.17;50.57;97435.63;4234832;27;5836;-68
2023/03/29 07:47:16;;;;;;;;;;;;;;;13.16;50.53;97428.69;4234753;28;5642;-69
2023/03/29 07:49:19;;;;;;;;;;;;;;;13.19;50.65;97428.31;4237728;27;5762;-70
2023/03/29 07:51:24;;;;;;;;;;;;;;;13.21;50.56;97426.28;4233735;28;5996;-75
2023/03/29 07:53:28;;;;;;;;;;;;;;;13.27;50.57;97422.88;4234659;27;6760;-75
2023/03/29 07:55:31;;;;;;;;;;;;;;;13.33;50.47;97424.72;4234313;28;5654;-73
2023/03/29 07:57:35;;;;;;;;;;;;;;;13.37;50.73;97420.69;4233464;27;5772;-70
2023/03/29 07:59:38;;;;;;;;;;;;;;;13.39;50.58;97433.75;4234445;28;5683;-71
2023/03/29 08:01:41;;;;;;;;;;;;;;;13.38;50.57;97432.94;4234197;28;5642;-70
2023/03/29 08:03:45;;;;;;;;;;;;;;;13.40;50.85;97441.53;4234618;27;5658;-70
2023/03/29 08:05:48;;;;;;;;;;;;;;;13.40;50.67;97430.91;4234633;28;5709;-71
2023/03/29 08:07:51;;;;;;;;;;;;;;;13.44;50.98;97435.81;4234302;28;6475;-70
2023/03/29 08:09:55;;;;;;;;;;;;;;;13.45;50.67;97432.16;4234468;28;5639;-69
2023/03/29 08:11:59;;;;;;;;;;;;;;;13.46;50.76;97431.13;4234371;28;5702;-69
2023/03/29 08:14:02;;;;;;;;;;;;;;;13.52;50.92;97440.97;4234828;28;5641;-69
2023/03/29 08:16:05;;;;;;;;;;;;;;;13.58;50.75;97442.84;4234246;28;5634;-69
2023/03/29 08:18:08;;;;;;;;;;;;;;;13.62;50.61;97449.41;4234566;27;5654;-68
2023/03/29 08:20:15;;;;;;;;;;;;;;;13.64;50.75;97456.16;4234354;28;5643;-68
2023/03/29 08:22:18;;;;;;;;;;;;;;;13.65;50.69;97455.16;4234270;28;5669;-68
2023/03/29 08:24:21;;;;;;;;;;;;;;;13.67;50.81;97452.28;4234466;28;5780;-69
2023/03/29 08:26:24;;;;;;;;;;;;;;;13.69;50.66;97456.38;4234325;28;5674;-68
2023/03/29 08:28:27;;;;;;;;;;;;;;;13.72;50.82;97457.03;4234485;28;5638;-69
2023/03/29 08:30:30;;;;;;;;;;;;;;;13.71;50.73;97448.25;4234318;28;5649;-69
2023/03/29 08:32:32;;;;;;;;;;;;;;;13.68;50.92;97438.00;4232873;28;5597;-69
2023/03/29 08:34:36;;;;;;;;;;;;;;;13.69;50.99;97442.28;4234290;28;5787;-68
2023/03/29 08:36:40;;;;;;;;;;;;;;;13.69;50.74;97443.09;4233912;28;5658;-69
2023/03/29 08:38:43;;;;;;;;;;;;;;;13.72;51.07;97441.09;4234363;28;5135;-68
2023/03/29 08:40:48;;;;;;;;;;;;;;;13.77;51.06;97443.97;4217327;28;7686;-68
2023/03/29 08:43:03;;;;;;;;;;;;;;;13.83;50.97;97451.16;4226066;28;5742;-69
2023/03/29 08:45:12;;;;;;;;;;;;;;;13.88;50.98;97444.22;4234566;27;5752;-69
2023/03/29 08:47:21;;;;;;;;;;;;;;;13.93;50.88;97441.81;4234189;27;5654;-68
2023/03/29 08:49:25;;;;;;;;;;;;;;;13.98;50.63;97444.69;4234296;28;5694;-69
2023/03/29 08:51:32;;;;;;;;;;;;;;;13.98;50.59;97442.03;4233808;28;5804;-69
2023/03/29 08:53:43;;;;;;;;;;;;;;;14.01;50.98;97453.28;4233932;28;5721;-68
2023/03/29 08:55:48;;;;;;;;;;;;;;;14.04;50.77;97445.72;4234428;27;5653;-68
2023/03/29 08:57:55;;;;;;;;;;;;;;;14.09;50.73;97453.91;4234545;28;5677;-68
2023/03/29 09:00:00;;;;;;;;;;;;;;;14.14;50.62;97450.66;4233738;28;5705;-70
2023/03/29 09:02:11;;;;;;;;;;;;;;;14.17;50.81;97452.94;4234301;28;5642;-69
2023/03/29 09:04:19;;;;;;;;;;;;;;;14.18;50.57;97449.25;4233939;28;5645;-68
2023/03/29 09:06:22;;;;;;;;;;;;;;;14.25;50.57;97450.06;4233928;28;5651;-69
2023/03/29 09:08:26;;;;;;;;;;;;;;;14.27;50.49;97446.22;4234081;28;5709;-69
2023/03/29 09:10:38;;;;;;;;;;;;;;;14.30;50.52;97442.34;4233925;28;5649;-69
2023/03/29 09:12:58;;;;;;;;;;;;;;;14.31;50.18;97441.31;4234163;28;5816;-69
2023/03/29 09:15:11;;;;;;;;;;;;;;;14.33;50.14;97446.44;4233900;28;5646;-69
2023/03/29 09:17:27;;;;;;;;;;;;;;;14.35;50.24;97449.69;4233867;28;5733;-69
2023/03/29 09:19:37;;;;;;;;;;;;;;;14.34;50.00;97442.75;4234199;28;5642;-69
2023/03/29 09:21:46;;;;;;;;;;;;;;;14.33;50.37;97447.25;4232409;28;5646;-68
2023/03/29 09:24:24;;;;;;;;;;;;;;;14.31;50.00;97449.28;4233984;28;5741;-69
2023/03/29 09:26:33;;;;;;;;;;;;;;;14.35;50.14;97455.03;4233735;28;5665;-69
2023/03/29 09:28:42;;;;;;;;;;;;;;;14.39;49.92;97442.97;4233823;28;5845;-69
2023/03/29 09:30:55;;;;;;;;;;;;;;;14.39;49.76;97441.13;4233869;28;7683;-69
2023/03/29 09:33:03;;;;;;;;;;;;;;;14.37;49.79;97447.66;4227284;28;5833;-69
2023/03/29 09:35:17;;;;;;;;;;;;;;;14.39;50.14;97441.13;4234157;28;5642;-69
2023/03/29 09:37:25;;;;;;;;;;;;;;;14.41;50.00;97447.06;4235155;28;5654;-69
2023/03/29 09:39:29;;;;;;;;;;;;;;;14.44;49.81;97446.69;4236928;28;5667;-69
2023/03/29 09:41:40;;;;;;;;;;;;;;;14.40;49.78;97448.09;4234853;28;5844;-69
2023/03/29 09:43:44;;;;;;;;;;;;;;;14.32;49.93;97461.56;4236568;28;5980;-69
2023/03/29 09:45:53;;;;;;;;;;;;;;;14.23;50.15;97452.13;4235968;28;5736;-69
2023/03/29 09:48:00;;;;;;;;;;;;;;;14.20;50.01;97452.53;4235101;28;5646;-69
2023/03/29 09:50:10;;;;;;;;;;;;;;;14.22;50.01;97450.47;4237010;28;5650;-69
2023/03/29 09:52:29;;;;;;;;;;;;;;;14.23;49.89;97449.47;4235154;28;5705;-68
2023/03/29 09:54:32;;;;;;;;;;;;;;;14.21;50.11;97443.53;4236373;27;5637;-69
2023/03/29 09:56:36;;;;;;;;;;;;;;;14.21;50.20;97441.69;4236643;27;5729;-69
2023/03/29 09:58:42;;;;;;;;;;;;;;;14.22;50.08;97439.84;4236351;28;5725;-69
2023/03/29 10:00:47;;;;;;;;;;;;;;;14.23;50.21;97438.81;4236477;28;6586;-70
2023/03/29 10:02:51;;;;;;;;;;;;;;;14.26;49.89;97446.41;4228689;28;5749;-70
2023/03/29 10:04:57;;;;;;;;;;;;;;;14.28;50.13;97439.88;4236552;28;5658;-69
2023/03/29 10:07:00;;;;;;;;;;;;;;;14.28;49.85;97437.22;4236336;28;5526;-70
2023/03/29 10:09:04;;;;;;;;;;;;;;;14.27;49.73;97437.44;4236452;28;7813;-69
2023/03/29 10:11:12;;;;;;;;;;;;;;;14.26;50.03;97438.41;4236608;28;5672;-69
2023/03/29 10:13:22;;;;;;;;;;;;;;;14.25;49.79;97439.44;4236478;28;5824;-69
2023/03/29 10:15:27;;;;;;;;;;;;;;;14.28;50.10;97436.41;4236795;28;5753;-69
2023/03/29 10:17:39;;;;;;;;;;;;;;;14.30;49.92;97437.00;4236760;28;6673;-69
2023/03/29 10:19:49;;;;;;;;;;;;;;;14.34;49.77;97427.59;4236195;27;5770;-69
2023/03/29 10:21:53;;;;;;;;;;;;;;;14.39;49.73;97435.81;4236226;27;5670;-70
2023/03/29 10:23:58;;;;;;;;;;;;;;;14.44;49.60;97437.84;4236377;28;5674;-70
2023/03/29 10:26:03;;;;;;;;;;;;;;;14.46;49.69;97435.84;4236447;28;5646;-69
2023/03/29 10:28:11;;;;;;;;;;;;;;;14.47;49.35;97432.16;4236175;28;6347;-69
2023/03/29 10:30:23;;;;;;;;;;;;;;;14.45;49.55;97435.03;4234896;28;5879;-69
2023/03/29 10:32:31;;;;;;;;;;;;;;;14.45;49.36;97424.38;4236596;28;5673;-69
2023/03/29 10:34:34;;;;;;;;;;;;;;;14.41;49.42;97427.63;4236207;28;5649;-70
2023/03/29 10:36:41;;;;;;;;;;;;;;;14.38;49.44;97430.66;4235665;28;5656;-69
2023/03/29 10:38:44;;;;;;;;;;;;;;;14.41;49.59;97438.28;4236268;28;5658;-69
2023/03/29 10:40:50;;;;;;;;;;;;;;;14.41;49.55;97432.94;4236015;28;6560;-71
2023/03/29 10:42:53;;;;;;;;;;;;;;;14.39;49.56;97419.84;4236186;28;5658;-69
2023/03/29 10:44:58;;;;;;;;;;;;;;;14.37;49.47;97423.72;4235797;28;5740;-69
2023/03/29 10:47:16;;;;;;;;;;;;;;;14.38;49.28;97433.31;4235916;28;5744;-70
2023/03/29 10:49:21;;;;;;;;;;;;;;;14.41;49.29;97433.78;4235721;28;5737;-70
2023/03/29 10:51:28;;;;;;;;;;;;;;;14.41;49.16;97444.41;4235126;28;5642;-70
2023/03/29 10:53:33;;;;;;;;;;;;;;;14.43;49.22;97441.53;4235881;27;5630;-70
2023/03/29 10:55:43;;;;;;;;;;;;;;;14.42;49.14;97424.75;4235914;28;5646;-69
2023/03/29 10:57:57;;;;;;;;;;;;;;;14.37;49.27;97403.25;4235958;28;5638;-69
2023/03/29 11:00:06;;;;;;;;;;;;;;;14.35;49.16;97407.97;4235637;28;5745;-69
2023/03/29 11:02:48;;;;;;;;;;;;;;;14.35;49.34;97423.91;4235812;27;5634;-70
2023/03/29 11:05:04;;;;;;;;;;;;;;;14.37;49.55;97426.38;4234955;28;5675;-69
2023/03/29 11:07:26;;;;;;;;;;;;;;;14.38;49.53;97423.50;4235406;28;5670;-69
2023/03/29 11:09:43;;;;;;;;;;;;;;;14.41;49.39;97411.66;4235360;28;5652;-69
2023/03/29 11:11:59;;;;;;;;;;;;;;;14.40;49.48;97394.06;4235432;27;5666;-69
2023/03/29 11:14:27;;;;;;;;;;;;;;;14.35;49.52;97396.50;4223130;28;5720;-69
2023/03/29 11:16:38;;;;;;;;;;;;;;;14.32;49.56;97418.19;4235589;27;5717;-68
2023/03/29 11:18:55;;;;;;;;;;;;;;;14.30;49.99;97420.25;4235480;27;5661;-69
2023/03/29 11:21:07;;;;;;;;;;;;;;;14.31;49.76;97422.69;4228502;28;5832;-69
2023/03/29 11:23:27;;;;;;;;;;;;;;;14.30;50.01;97405.09;4235035;28;5650;-68
2023/03/29 11:25:45;;;;;;;;;;;;;;;14.23;49.89;97398.94;4235212;28;5686;-69
2023/03/29 11:27:53;;;;;;;;;;;;;;;14.19;50.21;97390.56;4235128;27;5841;-69
2023/03/29 11:30:05;;;;;;;;;;;;;;;14.15;50.21;97388.47;4235093;28;5651;-70
2023/03/29 11:32:14;;;;;;;;;;;;;;;14.17;50.11;97400.56;4235219;28;5818;-68
2023/03/29 11:34:28;;;;;;;;;;;;;;;14.22;50.08;97410.59;4235265;28;5644;-68
2023/03/29 11:36:41;;;;;;;;;;;;;;;14.23;50.27;97404.25;4234681;28;5698;-68
2023/03/29 11:38:50;;;;;;;;;;;;;;;14.27;50.21;97406.31;4235143;28;5657;-68
2023/03/29 11:41:02;;;;;;;;;;;;;;;14.30;50.22;97407.75;4219106;28;5667;-69
2023/03/29 11:43:11;;;;;;;;;;;;;;;14.33;50.21;97404.69;4233882;28;5741;-69
2023/03/29 11:45:33;;;;;;;;;;;;;;;14.40;49.95;97400.22;4227570;28;5859;-68
2023/03/29 11:47:40;;;;;;;;;;;;;;;14.49;49.97;97395.53;4234229;28;5910;-69
2023/03/29 11:49:48;;;;;;;;;;;;;;;14.55;49.98;97387.56;4227556;28;5671;-69
2023/03/29 11:51:56;;;;;;;;;;;;;;;14.53;50.05;97402.91;4226169;28;5662;-69
2023/03/29 11:54:04;;;;;;;;;;;;;;;14.53;50.03;97397.59;4227663;28;5671;-70
2023/03/29 11:56:12;;;;;;;;;;;;;;;14.56;49.95;97399.03;4226715;28;5654;-70
2023/03/29 11:58:21;;;;;;;;;;;;;;;14.56;49.92;97405.16;4225870;28;5651;-69
2023/03/29 12:00:31;;;;;;;;;;;;;;;14.60;49.74;97404.75;4225913;28;5853;-69
2023/03/29 12:02:38;;;;;;;;;;;;;;;14.64;49.82;97406.00;4219562;28;5942;-69
2023/03/29 12:04:46;;;;;;;;;;;;;;;14.66;50.04;97393.31;4232331;28;5698;-69
2023/03/29 12:06:56;;;;;;;;;;;;;;;14.67;49.93;97379.78;4222186;28;5765;-69
2023/03/29 12:09:03;;;;;;;;;;;;;;;14.67;49.98;97365.66;4234747;28;5658;-69
2023/03/29 12:11:14;;;;;;;;;;;;;;;14.69;49.95;97361.78;4234516;27;5642;-69
2023/03/29 12:13:21;;;;;;;;;;;;;;;14.71;50.12;97366.88;4231963;28;5631;-69
2023/03/29 12:15:27;;;;;;;;;;;;;;;14.73;49.90;97383.50;4230255;28;5621;-69
2023/03/29 12:17:32;;;;;;;;;;;;;;;14.73;49.80;97370.19;4234305;28;5761;-70
2023/03/29 12:19:41;;;;;;;;;;;;;;;14.70;50.17;97355.41;4234027;28;5758;-69
2023/03/29 12:21:47;;;;;;;;;;;;;;;14.70;50.01;97352.75;4234319;28;5820;-70
2023/03/29 12:23:52;;;;;;;;;;;;;;;14.73;50.26;97331.09;4218009;28;5858;-69
2023/03/29 12:26:03;;;;;;;;;;;;;;;14.78;50.03;97339.25;4234406;28;5741;-69
2023/03/29 12:28:23;;;;;;;;;;;;;;;14.85;50.29;97352.56;4234599;27;5654;-69
2023/03/29 12:30:38;;;;;;;;;;;;;;;14.94;50.18;97353.97;4234386;28;6355;-70
2023/03/29 12:32:53;;;;;;;;;;;;;;;15.01;50.01;97346.78;4226483;27;6269;-70
2023/03/29 12:35:11;;;;;;;;;;;;;;;15.07;50.21;97340.66;4234644;28;5646;-69
2023/03/29 12:37:30;;;;;;;;;;;;;;;15.15;50.16;97340.41;4233889;28;5654;-69
2023/03/29 12:39:37;;;;;;;;;;;;;;;15.22;49.93;97344.91;4234626;28;5914;-69
2023/03/29 12:41:44;;;;;;;;;;;;;;;15.26;50.00;97351.44;4234210;28;5737;-69
2023/03/29 12:43:48;;;;;;;;;;;;;;;15.32;50.08;97353.28;4233783;28;5642;-69
2023/03/29 12:45:57;;;;;;;;;;;;;;;15.36;50.07;97347.31;4234709;27;5757;-69
2023/03/29 12:48:01;;;;;;;;;;;;;;;15.41;50.15;97341.38;4234162;28;5829;-69
2023/03/29 12:50:05;;;;;;;;;;;;;;;15.43;49.96;97342.00;4234366;28;6359;-69
2023/03/29 12:52:26;;;;;;;;;;;;;;;15.48;49.86;97334.16;4233712;28;5642;-69
2023/03/29 12:54:33;;;;;;;;;;;;;;;15.51;49.81;97333.75;4234070;28;5642;-69
2023/03/29 12:56:41;;;;;;;;;;;;;;;15.54;49.61;97341.34;4233968;28;5812;-69
2023/03/29 12:58:54;;;;;;;;;;;;;;;15.58;49.86;97341.72;4234131;28;5656;-69
2023/03/29 13:01:05;;;;;;;;;;;;;;;15.61;49.77;97342.13;4226753;28;5639;-69
2023/03/29 13:03:21;;;;;;;;;;;;;;;15.63;49.84;97333.97;4234397;27;5666;-69
2023/03/29 13:05:31;;;;;;;;;;;;;;;15.65;50.02;97340.69;4234585;27;5638;-69
2023/03/29 13:07:46;;;;;;;;;;;;;;;15.67;50.13;97327.97;4232518;28;5605;-69
2023/03/29 13:09:51;;;;;;;;;;;;;;;15.69;50.09;97335.75;4229252;28;5642;-69
2023/03/29 13:11:58;;;;;;;;;;;;;;;15.70;49.91;97332.06;4235023;28;5778;-69
2023/03/29 13:14:04;;;;;;;;;;;;;;;15.72;50.16;97330.81;4237273;28;5798;-69
2023/03/29 13:16:12;;;;;;;;;;;;;;;15.75;50.09;97328.78;4234097;28;5642;-69
2023/03/29 13:18:36;;;;;;;;;;;;;;;15.75;50.07;97318.13;4224248;28;5952;-69
2023/03/29 13:20:46;;;;;;;;;;;;;;;15.73;50.22;97305.78;4235430;28;5646;-69
2023/03/29 13:23:03;;;;;;;;;;;;;;;15.75;50.30;97318.13;4221259;28;5762;-69
2023/03/29 13:25:18;;;;;;;;;;;;;;;15.76;50.30;97311.75;4235475;28;7959;-68
2023/03/29 13:27:36;;;;;;;;;;;;;;;15.77;50.24;97300.88;4235859;28;6470;-69
2023/03/29 13:29:56;;;;;;;;;;;;;;;15.85;50.00;97308.59;4235093;28;5941;-69
2023/03/29 13:32:06;;;;;;;;;;;;;;;15.88;50.01;97300.19;4235363;28;5804;-69
2023/03/29 13:34:21;;;;;;;;;;;;;;;15.91;49.89;97285.59;4235332;28;5641;-69
2023/03/29 13:36:40;;;;;;;;;;;;;;;15.95;50.00;97289.47;4233279;27;5634;-70
2023/03/29 13:38:48;;;;;;;;;;;;;;;15.98;49.81;97289.06;4236093;28;5732;-69
2023/03/29 13:41:01;;;;;;;;;;;;;;;16.00;49.88;97279.00;4235497;28;5832;-69
2023/03/29 13:43:19;;;;;;;;;;;;;;;16.04;49.46;97282.84;4234600;28;5822;-70
2023/03/29 13:45:26;;;;;;;;;;;;;;;16.09;49.17;97277.69;4230451;28;5670;-70
2023/03/29 13:47:41;;;;;;;;;;;;;;;16.09;49.03;97277.69;4236381;28;5646;-69
2023/03/29 13:50:04;;;;;;;;;;;;;;;16.10;49.08;97279.34;4228961;28;5729;-71
2023/03/29 13:52:15;;;;;;;;;;;;;;;16.12;49.29;97277.25;4235435;28;5682;-72
2023/03/29 13:54:26;;;;;;;;;;;;;;;16.16;49.04;97277.63;4234346;27;5671;-69
2023/03/29 13:56:34;;;;;;;;;;;;;;;16.20;49.07;97277.00;4236515;28;5634;-69
2023/03/29 13:58:45;;;;;;;;;;;;;;;16.22;48.91;97272.25;4233865;28;5646;-68
2023/03/29 14:00:53;;;;;;;;;;;;;;;16.24;48.75;97264.84;4227924;28;5730;-69
2023/03/29 14:03:00;;;;;;;;;;;;;;;16.27;48.77;97259.06;4225332;28;5809;-69
2023/03/29 14:05:07;;;;;;;;;;;;;;;16.34;48.78;97266.22;4231111;28;5794;-69
2023/03/29 14:07:15;;;;;;;;;;;;;;;16.35;48.47;97254.50;4234747;28;5642;-69
2023/03/29 14:09:20;;;;;;;;;;;;;;;16.31;48.48;97248.81;4236114;28;5657;-69
2023/03/29 14:11:27;;;;;;;;;;;;;;;16.31;48.48;97251.47;4236256;27;5808;-70
2023/03/29 14:13:31;;;;;;;;;;;;;;;16.33;48.45;97248.59;4228425;28;5684;-69
2023/03/29 14:15:44;;;;;;;;;;;;;;;16.34;48.31;97253.69;4230966;28;5705;-70
2023/03/29 14:17:47;;;;;;;;;;;;;;;16.39;48.06;97245.84;4232259;28;5897;-70
2023/03/29 14:19:51;;;;;;;;;;;;;;;16.40;47.89;97241.31;4230649;28;5646;-69
2023/03/29 14:21:54;;;;;;;;;;;;;;;16.41;47.93;97237.63;4227293;28;5641;-70
2023/03/29 14:24:01;;;;;;;;;;;;;;;16.43;47.99;97228.38;4235107;27;5726;-68
2023/03/29 14:26:07;;;;;;;;;;;;;;;16.50;47.74;97225.63;4235800;28;5638;-69
2023/03/29 14:28:19;;;;;;;;;;;;;;;16.46;47.59;97225.25;4235649;28;5661;-69
2023/03/29 14:30:27;;;;;;;;;;;;;;;16.41;47.79;97233.09;4235809;28;5775;-69
2023/03/29 14:32:31;;;;;;;;;;;;;;;16.43;47.65;97230.22;4235840;28;5673;-70
2023/03/29 14:34:35;;;;;;;;;;;;;;;16.45;47.67;97233.50;4235709;28;5674;-69
2023/03/29 14:36:38;;;;;;;;;;;;;;;16.46;47.44;97229.78;4235241;27;5690;-69
2023/03/29 14:38:52;;;;;;;;;;;;;;;16.51;47.26;97232.59;4235757;27;5646;-70
2023/03/29 14:40:59;;;;;;;;;;;;;;;16.53;47.28;97225.19;4235741;28;5670;-70
2023/03/29 14:43:09;;;;;;;;;;;;;;;16.56;47.13;97224.75;4235766;28;5650;-71
2023/03/29 14:45:15;;;;;;;;;;;;;;;16.56;47.18;97224.75;4235744;28;5701;-69
2023/03/29 14:47:25;;;;;;;;;;;;;;;16.54;47.20;97218.84;4222723;28;5863;-69
2023/03/29 14:49:30;;;;;;;;;;;;;;;16.54;47.30;97224.19;4235921;28;5658;-69
2023/03/29 14:51:33;;;;;;;;;;;;;;;16.55;47.29;97220.47;4230755;27;5654;-70
2023/03/29 14:53:37;;;;;;;;;;;;;;;16.54;47.22;97208.97;4235454;28;5646;-70
2023/03/29 14:55:41;;;;;;;;;;;;;;;16.55;47.28;97207.13;4235522;28;5665;-70
2023/03/29 14:57:48;;;;;;;;;;;;;;;16.54;47.10;97203.63;4235750;28;5646;-70
2023/03/29 14:59:54;;;;;;;;;;;;;;;16.52;47.32;97204.88;4226349;28;6375;-68
2023/03/29 15:01:57;;;;;;;;;;;;;;;16.52;47.34;97205.69;4235565;28;5657;-70
2023/03/29 15:04:04;;;;;;;;;;;;;;;16.53;47.22;97198.50;4235498;28;5642;-70
2023/03/29 15:06:08;;;;;;;;;;;;;;;16.54;47.37;97194.81;4235583;28;5666;-70
2023/03/29 15:08:17;;;;;;;;;;;;;;;16.54;47.33;97194.81;4235244;28;5649;-70
2023/03/29 15:10:20;;;;;;;;;;;;;;;16.56;47.33;97192.75;4235499;28;5756;-71
2023/03/29 15:12:23;;;;;;;;;;;;;;;16.56;47.34;97193.56;4235313;28;5650;-71
2023/03/29 15:14:32;;;;;;;;;;;;;;;16.55;47.25;97189.25;4235274;28;5655;-70
2023/03/29 15:16:38;;;;;;;;;;;;;;;16.56;47.43;97184.72;4235645;27;5757;-69
2023/03/29 15:18:44;;;;;;;;;;;;;;;16.56;47.17;97182.06;4235503;28;5764;-69
2023/03/29 15:20:50;;;;;;;;;;;;;;;16.55;47.42;97185.78;4234781;28;5829;-69
2023/03/29 15:22:59;;;;;;;;;;;;;;;16.53;47.36;97182.47;4235296;28;5789;-70
2023/03/29 15:25:02;;;;;;;;;;;;;;;16.52;47.42;97178.19;4235302;28;7663;-70
2023/03/29 15:27:14;;;;;;;;;;;;;;;16.53;47.28;97174.47;4234872;28;6570;-70
2023/03/29 15:29:22;;;;;;;;;;;;;;;16.53;47.30;97177.16;4235289;28;5686;-70
2023/03/29 15:31:33;;;;;;;;;;;;;;;16.56;47.04;97168.72;4235001;28;5654;-70
2023/03/29 15:33:37;;;;;;;;;;;;;;;16.59;46.88;97170.94;4235220;28;5857;-70
2023/03/29 15:35:40;;;;;;;;;;;;;;;16.61;46.73;97163.50;4234147;28;5665;-69
2023/03/29 15:37:43;;;;;;;;;;;;;;;16.61;46.81;97163.50;4234996;28;5672;-70
2023/03/29 15:39:47;;;;;;;;;;;;;;;16.65;46.53;97159.38;4226557;28;5655;-69
2023/03/29 15:41:52;;;;;;;;;;;;;;;16.67;46.81;97161.81;4234870;28;5767;-69
2023/03/29 15:43:58;;;;;;;;;;;;;;;16.68;46.87;97153.63;4235008;28;5642;-70
2023/03/29 15:46:01;;;;;;;;;;;;;;;16.68;46.74;97161.63;4234868;28;5646;-69
2023/03/29 15:48:14;;;;;;;;;;;;;;;16.70;46.66;97150.72;4235205;28;5639;-70
2023/03/29 15:50:17;;;;;;;;;;;;;;;16.68;46.80;97148.28;4234827;28;5682;-69
2023/03/29 15:52:19;;;;;;;;;;;;;;;16.66;46.88;97138.84;4234363;28;5662;-69
2023/03/29 15:54:23;;;;;;;;;;;;;;;16.67;46.80;97140.47;4234832;28;5709;-70
2023/03/29 15:56:28;;;;;;;;;;;;;;;16.65;46.90;97138.03;4234461;28;6491;-70
2023/03/29 15:58:32;;;;;;;;;;;;;;;16.60;47.05;97137.88;4234663;28;5641;-70
2023/03/29 16:00:39;;;;;;;;;;;;;;;16.56;46.94;97129.50;4234507;27;5181;-69
2023/03/29 16:02:42;;;;;;;;;;;;;;;16.59;47.01;97129.03;4234475;28;8536;-69
2023/03/29 16:04:45;;;;;;;;;;;;;;;16.62;46.97;97127.78;4234772;28;5770;-70
2023/03/29 16:06:51;;;;;;;;;;;;;;;16.65;46.96;97132.69;4234285;28;5745;-69
2023/03/29 16:08:54;;;;;;;;;;;;;;;16.67;46.84;97122.59;4233468;28;5678;-69
2023/03/29 16:10:59;;;;;;;;;;;;;;;16.67;46.86;97125.28;4234541;28;5679;-69
2023/03/29 16:13:03;;;;;;;;;;;;;;;16.68;46.94;97124.25;4234754;28;6425;-69